createdAt,value
2018-04-07T00:00:48.118Z,61.87
2018-04-07T00:01:48.097Z,61.77
2018-04-07T00:02:48.083Z,61.77
2018-04-07T00:03:48.060Z,61.77
2018-04-07T00:04:48.041Z,61.68
2018-04-07T00:05:48.018Z,62.24
2018-04-07T00:06:48.002Z,62.43
2018-04-07T00:07:47.982Z,62.43
2018-04-07T00:08:47.964Z,62.05
2018-04-07T00:09:48.007Z,62.82
2018-04-07T00:10:47.929Z,63.01
2018-04-07T00:11:47.902Z,62.72
2018-04-07T00:12:47.884Z,62.72
2018-04-07T00:13:47.865Z,62.82
2018-04-07T00:14:47.845Z,62.72
2018-04-07T00:15:47.825Z,62.24
2018-04-07T00:16:47.810Z,63.01
2018-04-07T00:17:47.785Z,62.62
2018-04-07T00:18:47.766Z,62.82
2018-04-07T00:19:47.747Z,62.53
2018-04-07T00:20:47.726Z,62.91
2018-04-07T00:21:47.709Z,62.72
2018-04-07T00:22:47.687Z,63.10
2018-04-07T00:23:47.673Z,62.72
2018-04-07T00:24:47.646Z,63.01
2018-04-07T00:25:47.629Z,62.82
2018-04-07T00:26:47.608Z,63.01
2018-04-07T00:27:47.590Z,62.82
2018-04-07T00:28:47.571Z,63.39
2018-04-07T00:29:47.548Z,63.39
2018-04-07T00:30:47.533Z,63.86
2018-04-07T00:31:47.518Z,63.95
2018-04-07T00:32:47.491Z,63.57
2018-04-07T00:33:47.475Z,63.67
2018-04-07T00:34:47.456Z,63.48
2018-04-07T00:35:47.437Z,63.48
2018-04-07T00:36:47.412Z,63.57
2018-04-07T00:37:47.389Z,63.48
2018-04-07T00:38:47.370Z,63.48
2018-04-07T00:39:47.351Z,63.76
2018-04-07T00:40:47.335Z,63.45
2018-04-07T00:41:47.311Z,63.86
2018-04-07T00:42:47.291Z,63.76
2018-04-07T00:43:47.272Z,63.76
2018-04-07T00:44:47.255Z,63.82
2018-04-07T00:45:47.231Z,63.92
2018-04-07T00:46:47.212Z,63.39
2018-04-07T00:47:47.190Z,63.86
2018-04-07T00:48:47.173Z,64.40
2018-04-07T00:49:47.155Z,64.30
2018-04-07T00:50:47.135Z,64.20
2018-04-07T00:51:47.114Z,64.11
2018-04-07T00:52:47.094Z,64.20
2018-04-07T00:53:47.077Z,64.20
2018-04-07T00:54:47.052Z,63.64
2018-04-07T00:55:47.034Z,63.82
2018-04-07T00:56:47.014Z,64.68
2018-04-07T00:57:46.993Z,64.49
2018-04-07T00:58:46.974Z,63.92
2018-04-07T00:59:46.956Z,64.01
2018-04-07T01:00:46.936Z,63.92
2018-04-07T01:01:46.914Z,64.20
2018-04-07T01:02:46.897Z,64.11
2018-04-07T01:03:46.875Z,64.11
2018-04-07T01:04:46.858Z,64.68
2018-04-07T01:05:46.836Z,64.49
2018-04-07T01:06:46.820Z,64.40
2018-04-07T01:07:46.796Z,64.40
2018-04-07T01:08:46.775Z,63.82
2018-04-07T01:09:46.759Z,64.40
2018-04-07T01:10:46.735Z,64.68
2018-04-07T01:11:46.718Z,64.30
2018-04-07T01:12:46.696Z,64.97
2018-04-07T01:13:46.680Z,64.49
2018-04-07T01:14:46.661Z,64.97
2018-04-07T01:15:46.639Z,64.97
2018-04-07T01:16:46.617Z,65.25
2018-04-07T01:17:46.600Z,65.16
2018-04-07T01:18:46.578Z,65.16
2018-04-07T01:19:46.561Z,65.16
2018-04-07T01:20:46.537Z,64.78
2018-04-07T01:21:46.517Z,64.87
2018-04-07T01:22:46.499Z,65.16
2018-04-07T01:23:46.476Z,65.06
2018-04-07T01:24:46.460Z,65.16
2018-04-07T01:25:46.437Z,64.97
2018-04-07T01:26:46.418Z,64.97
2018-04-07T01:27:46.398Z,64.87
2018-04-07T01:28:46.379Z,65.06
2018-04-07T01:29:46.361Z,65.06
2018-04-07T01:30:46.339Z,64.97
2018-04-07T01:31:46.316Z,65.06
2018-04-07T01:32:46.297Z,65.16
2018-04-07T01:33:46.277Z,65.72
2018-04-07T01:34:46.256Z,65.44
2018-04-07T01:35:46.237Z,65.34
2018-04-07T01:36:46.217Z,64.87
2018-04-07T01:37:46.196Z,65.16
2018-04-07T01:38:46.180Z,65.53
2018-04-07T01:39:46.156Z,65.53
2018-04-07T01:40:46.137Z,65.53
2018-04-07T01:41:46.118Z,65.44
2018-04-07T01:42:46.097Z,65.91
2018-04-07T01:43:46.077Z,65.91
2018-04-07T01:44:46.057Z,66.29
2018-04-07T01:45:46.037Z,66.20
2018-04-07T01:46:46.016Z,66.10
2018-04-07T01:47:45.995Z,65.72
2018-04-07T01:48:45.976Z,66.58
2018-04-07T01:49:45.954Z,66.20
2018-04-07T01:50:45.935Z,65.72
2018-04-07T01:51:45.916Z,65.91
2018-04-07T01:52:45.898Z,66.01
2018-04-07T01:53:45.875Z,65.91
2018-04-07T01:54:45.855Z,66.01
2018-04-07T01:55:45.835Z,66.01
2018-04-07T01:56:45.816Z,65.82
2018-04-07T01:57:45.795Z,66.01
2018-04-07T01:58:45.780Z,65.72
2018-04-07T01:59:45.756Z,65.72
2018-04-07T02:00:45.749Z,65.91
2018-04-07T02:01:45.718Z,66.29
2018-04-07T02:02:45.697Z,65.72
2018-04-07T02:03:45.678Z,66.10
2018-04-07T02:04:45.656Z,65.72
2018-04-07T02:05:45.636Z,66.01
2018-04-07T02:06:45.617Z,66.01
2018-04-07T02:07:45.596Z,66.48
2018-04-07T02:08:45.575Z,65.82
2018-04-07T02:09:45.553Z,65.72
2018-04-07T02:10:45.535Z,66.10
2018-04-07T02:11:45.516Z,65.82
2018-04-07T02:12:45.496Z,66.20
2018-04-07T02:13:45.473Z,65.91
2018-04-07T02:14:45.454Z,65.34
2018-04-07T02:15:45.436Z,65.82
2018-04-07T02:16:45.413Z,65.44
2018-04-07T02:17:45.395Z,65.16
2018-04-07T02:18:45.375Z,65.72
2018-04-07T02:19:45.355Z,66.10
2018-04-07T02:20:45.334Z,65.53
2018-04-07T02:21:45.315Z,66.01
2018-04-07T02:22:45.294Z,65.34
2018-04-07T02:23:45.270Z,65.53
2018-04-07T02:24:45.253Z,66.10
2018-04-07T02:25:45.232Z,65.25
2018-04-07T02:26:45.213Z,65.82
2018-04-07T02:27:45.193Z,65.63
2018-04-07T02:28:45.173Z,64.97
2018-04-07T02:29:45.151Z,65.34
2018-04-07T02:30:45.131Z,66.01
2018-04-07T02:31:45.110Z,66.10
2018-04-07T02:32:45.091Z,66.10
2018-04-07T02:33:45.076Z,65.82
2018-04-07T02:34:45.050Z,65.82
2018-04-07T02:35:45.030Z,65.63
2018-04-07T02:36:45.012Z,66.29
2018-04-07T02:37:44.990Z,66.48
2018-04-07T02:38:44.971Z,66.58
2018-04-07T02:39:44.950Z,66.01
2018-04-07T02:40:44.930Z,65.72
2018-04-07T02:41:44.908Z,65.63
2018-04-07T02:42:44.889Z,65.34
2018-04-07T02:43:44.872Z,65.06
2018-04-07T02:44:44.848Z,65.06
2018-04-07T02:45:44.833Z,64.87
2018-04-07T02:46:44.808Z,65.16
2018-04-07T02:47:44.789Z,65.63
2018-04-07T02:48:44.767Z,65.53
2018-04-07T02:49:46.500Z,65.63
2018-04-07T02:50:44.730Z,65.25
2018-04-07T02:51:44.709Z,65.25
2018-04-07T02:52:44.689Z,64.59
2018-04-07T02:53:44.671Z,64.97
2018-04-07T02:54:44.646Z,64.49
2018-04-07T02:55:44.626Z,64.68
2018-04-07T02:56:44.615Z,65.06
2018-04-07T02:57:44.584Z,65.06
2018-04-07T02:58:44.566Z,64.87
2018-04-07T02:59:44.546Z,65.34
2018-04-07T03:00:44.525Z,65.06
2018-04-07T03:01:44.504Z,65.06
2018-04-07T03:02:44.484Z,65.16
2018-04-07T03:03:44.522Z,65.16
2018-04-07T03:04:44.445Z,65.16
2018-04-07T03:05:44.422Z,65.53
2018-04-07T03:06:44.403Z,65.82
2018-04-07T03:07:44.385Z,65.06
2018-04-07T03:08:44.364Z,65.63
2018-04-07T03:09:44.343Z,65.44
2018-04-07T03:10:44.322Z,65.34
2018-04-07T03:11:44.302Z,65.72
2018-04-07T03:12:44.283Z,65.53
2018-04-07T03:13:44.264Z,65.53
2018-04-07T03:14:44.242Z,65.82
2018-04-07T03:15:44.222Z,65.34
2018-04-07T03:16:44.201Z,65.06
2018-04-07T03:17:44.179Z,65.82
2018-04-07T03:18:44.161Z,65.25
2018-04-07T03:19:44.190Z,65.16
2018-04-07T03:20:44.165Z,65.34
2018-04-07T03:21:44.101Z,65.63
2018-04-07T03:22:44.129Z,65.72
2018-04-07T03:23:44.059Z,65.25
2018-04-07T03:24:44.039Z,65.34
2018-04-07T03:25:44.032Z,65.91
2018-04-07T03:26:44.003Z,66.01
2018-04-07T03:27:43.981Z,66.01
2018-04-07T03:28:43.958Z,66.10
2018-04-07T03:29:43.937Z,65.72
2018-04-07T03:30:43.918Z,65.82
2018-04-07T03:31:43.900Z,66.20
2018-04-07T03:32:43.876Z,66.29
2018-04-07T03:33:43.857Z,66.58
2018-04-07T03:34:43.837Z,66.35
2018-04-07T03:35:43.816Z,65.97
2018-04-07T03:36:43.798Z,66.54
2018-04-07T03:37:43.793Z,66.64
2018-04-07T03:38:43.753Z,66.16
2018-04-07T03:39:43.734Z,66.35
2018-04-07T03:40:43.714Z,67.02
2018-04-07T03:41:43.694Z,66.64
2018-04-07T03:42:43.673Z,67.11
2018-04-07T03:43:43.653Z,67.49
2018-04-07T03:44:43.633Z,67.21
2018-04-07T03:45:43.612Z,67.21
2018-04-07T03:46:43.594Z,66.93
2018-04-07T03:47:43.576Z,66.74
2018-04-07T03:48:43.553Z,66.54
2018-04-07T03:49:43.533Z,66.74
2018-04-07T03:50:43.508Z,66.64
2018-04-07T03:51:43.491Z,66.54
2018-04-07T03:52:43.470Z,67.30
2018-04-07T03:53:43.448Z,67.30
2018-04-07T03:54:43.429Z,66.93
2018-04-07T03:55:43.418Z,67.58
2018-04-07T03:56:43.388Z,66.74
2018-04-07T03:57:43.373Z,66.45
2018-04-07T03:58:43.350Z,66.54
2018-04-07T03:59:43.328Z,65.97
2018-04-07T04:00:43.317Z,66.29
2018-04-07T04:01:43.287Z,66.16
2018-04-07T04:02:43.267Z,66.16
2018-04-07T04:03:43.247Z,65.63
2018-04-07T04:04:43.226Z,65.63
2018-04-07T04:05:43.205Z,65.16
2018-04-07T04:06:43.184Z,63.92
2018-04-07T04:07:43.165Z,64.11
2018-04-07T04:08:43.144Z,64.20
2018-04-07T04:09:43.124Z,63.73
2018-04-07T04:10:43.105Z,63.54
2018-04-07T04:11:43.084Z,63.45
2018-04-07T04:12:43.063Z,63.07
2018-04-07T04:13:43.044Z,63.07
2018-04-07T04:14:43.026Z,62.59
2018-04-07T04:15:43.005Z,62.59
2018-04-07T04:16:42.982Z,62.21
2018-04-07T04:17:42.961Z,62.40
2018-04-07T04:18:42.946Z,61.93
2018-04-07T04:19:42.923Z,62.24
2018-04-07T04:20:42.900Z,62.15
2018-04-07T04:21:42.878Z,62.24
2018-04-07T04:22:42.860Z,61.96
2018-04-07T04:23:42.838Z,61.77
2018-04-07T04:24:42.817Z,61.87
2018-04-07T04:25:42.798Z,61.77
2018-04-07T04:26:42.775Z,61.77
2018-04-07T04:27:42.758Z,61.87
2018-04-07T04:28:42.738Z,61.87
2018-04-07T04:29:42.718Z,61.87
2018-04-07T04:30:42.698Z,62.05
2018-04-07T04:31:42.674Z,61.77
2018-04-07T04:32:42.654Z,61.49
2018-04-07T04:33:42.633Z,61.96
2018-04-07T04:34:42.612Z,61.68
2018-04-07T04:35:42.593Z,61.77
2018-04-07T04:36:42.574Z,61.87
2018-04-07T04:37:42.554Z,62.43
2018-04-07T04:38:42.532Z,62.34
2018-04-07T04:39:42.511Z,61.68
2018-04-07T04:40:42.495Z,61.96
2018-04-07T04:41:42.469Z,62.34
2018-04-07T04:42:42.459Z,62.05
2018-04-07T04:43:42.430Z,61.96
2018-04-07T04:44:42.409Z,62.24
2018-04-07T04:45:42.394Z,62.34
2018-04-07T04:46:42.371Z,61.68
2018-04-07T04:47:42.350Z,61.87
2018-04-07T04:48:42.331Z,62.24
2018-04-07T04:49:42.311Z,62.24
2018-04-07T04:50:42.288Z,61.77
2018-04-07T04:51:42.267Z,61.87
2018-04-07T04:52:42.252Z,61.77
2018-04-07T04:53:42.230Z,61.77
2018-04-07T04:54:42.206Z,61.77
2018-04-07T04:55:42.187Z,61.77
2018-04-07T04:56:42.167Z,61.77
2018-04-07T04:57:42.150Z,61.49
2018-04-07T04:58:42.127Z,60.92
2018-04-07T04:59:42.107Z,61.20
2018-04-07T05:00:42.087Z,61.49
2018-04-07T05:01:42.066Z,61.58
2018-04-07T05:02:42.046Z,61.49
2018-04-07T05:03:42.026Z,61.58
2018-04-07T05:04:42.013Z,61.30
2018-04-07T05:05:41.985Z,61.01
2018-04-07T05:06:41.965Z,60.92
2018-04-07T05:07:41.944Z,61.30
2018-04-07T05:08:41.925Z,60.63
2018-04-07T05:09:41.905Z,60.44
2018-04-07T05:10:41.883Z,60.25
2018-04-07T05:11:41.867Z,59.88
2018-04-07T05:12:41.844Z,59.59
2018-04-07T05:13:41.825Z,60.06
2018-04-07T05:14:41.806Z,59.78
2018-04-07T05:15:41.787Z,59.97
2018-04-07T05:16:41.761Z,59.97
2018-04-07T05:17:41.742Z,59.30
2018-04-07T05:18:41.723Z,59.40
2018-04-07T05:19:41.701Z,59.40
2018-04-07T05:20:41.681Z,59.43
2018-04-07T05:21:41.662Z,59.43
2018-04-07T05:22:41.643Z,60.00
2018-04-07T05:23:41.620Z,59.43
2018-04-07T05:24:41.604Z,59.05
2018-04-07T05:25:41.583Z,59.43
2018-04-07T05:26:41.561Z,58.67
2018-04-07T05:27:41.545Z,58.58
2018-04-07T05:28:41.521Z,58.20
2018-04-07T05:29:41.499Z,58.76
2018-04-07T05:30:41.477Z,58.95
2018-04-07T05:31:41.460Z,58.29
2018-04-07T05:32:41.442Z,58.10
2018-04-07T05:33:41.425Z,58.20
2018-04-07T05:34:41.406Z,58.00
2018-04-07T05:35:41.377Z,57.24
2018-04-07T05:36:41.359Z,57.43
2018-04-07T05:37:41.339Z,57.81
2018-04-07T05:38:41.323Z,57.24
2018-04-07T05:39:41.299Z,57.06
2018-04-07T05:40:41.282Z,56.77
2018-04-07T05:41:41.257Z,56.61
2018-04-07T05:42:41.238Z,56.51
2018-04-07T05:43:41.233Z,56.51
2018-04-07T05:44:41.200Z,56.51
2018-04-07T05:45:41.179Z,56.99
2018-04-07T05:46:41.158Z,56.99
2018-04-07T05:47:41.141Z,57.18
2018-04-07T05:48:41.120Z,56.61
2018-04-07T05:49:41.098Z,56.80
2018-04-07T05:50:41.080Z,55.94
2018-04-07T05:51:41.067Z,55.85
2018-04-07T05:52:41.039Z,55.76
2018-04-07T05:53:41.022Z,55.47
2018-04-07T05:54:41.058Z,55.18
2018-04-07T05:55:40.983Z,55.37
2018-04-07T05:56:40.961Z,54.80
2018-04-07T05:57:40.943Z,54.90
2018-04-07T05:58:40.921Z,54.14
2018-04-07T05:59:40.903Z,54.71
2018-04-07T06:00:40.883Z,55.37
2018-04-07T06:01:40.863Z,54.61
2018-04-07T06:02:40.841Z,54.33
2018-04-07T06:03:40.823Z,54.45
2018-04-07T06:04:40.832Z,54.07
2018-04-07T06:05:40.786Z,53.97
2018-04-07T06:06:40.768Z,53.88
2018-04-07T06:07:40.754Z,53.97
2018-04-07T06:08:40.733Z,54.26
2018-04-07T06:09:40.705Z,54.17
2018-04-07T06:10:40.691Z,53.69
2018-04-07T06:11:40.667Z,53.97
2018-04-07T06:12:40.648Z,54.07
2018-04-07T06:13:40.630Z,52.64
2018-04-07T06:14:40.621Z,52.55
2018-04-07T06:15:40.596Z,52.45
2018-04-07T06:16:40.570Z,52.26
2018-04-07T06:17:40.551Z,51.72
2018-04-07T06:18:40.537Z,51.82
2018-04-07T06:19:40.512Z,51.53
2018-04-07T06:20:40.492Z,51.15
2018-04-07T06:21:40.476Z,51.06
2018-04-07T06:22:40.456Z,51.06
2018-04-07T06:23:40.436Z,51.15
2018-04-07T06:24:40.440Z,50.39
2018-04-07T06:25:40.398Z,50.77
2018-04-07T06:26:40.383Z,50.96
2018-04-07T06:27:40.360Z,50.39
2018-04-07T06:28:40.341Z,49.82
2018-04-07T06:29:40.320Z,50.20
2018-04-07T06:30:40.306Z,50.04
2018-04-07T06:31:40.287Z,49.37
2018-04-07T06:32:40.266Z,49.46
2018-04-07T06:33:40.246Z,49.56
2018-04-07T06:34:40.226Z,49.27
2018-04-07T06:35:40.213Z,48.71
2018-04-07T06:36:40.190Z,48.03
2018-04-07T06:37:40.172Z,48.71
2018-04-07T06:38:40.152Z,48.99
2018-04-07T06:39:40.135Z,49.08
2018-04-07T06:40:40.119Z,49.01
2018-04-07T06:41:40.096Z,48.54
2018-04-07T06:42:40.079Z,47.78
2018-04-07T06:43:40.062Z,46.92
2018-04-07T06:44:40.045Z,46.35
2018-04-07T06:45:40.021Z,46.44
2018-04-07T06:46:40.004Z,46.54
2018-04-07T06:47:39.991Z,46.73
2018-04-07T06:48:39.973Z,46.06
2018-04-07T06:49:39.951Z,45.99
2018-04-07T06:50:39.930Z,46.56
2018-04-07T06:51:39.915Z,46.28
2018-04-07T06:52:39.904Z,46.18
2018-04-07T06:53:39.876Z,46.18
2018-04-07T06:54:39.864Z,46.28
2018-04-07T06:55:39.843Z,45.99
2018-04-07T06:56:39.824Z,45.80
2018-04-07T06:57:39.805Z,45.63
2018-04-07T06:58:39.794Z,45.35
2018-04-07T06:59:39.772Z,45.06
2018-04-07T07:00:39.804Z,44.78
2018-04-07T07:01:39.734Z,44.39
2018-04-07T07:02:39.720Z,43.54
2018-04-07T07:03:39.701Z,43.73
2018-04-07T07:04:39.684Z,44.20
2018-04-07T07:05:39.670Z,43.73
2018-04-07T07:06:39.648Z,43.44
2018-04-07T07:07:39.634Z,43.08
2018-04-07T07:08:39.614Z,42.49
2018-04-07T07:09:39.597Z,43.08
2018-04-07T07:10:39.583Z,43.54
2018-04-07T07:11:39.564Z,43.65
2018-04-07T07:12:39.546Z,43.18
2018-04-07T07:13:39.529Z,42.80
2018-04-07T07:14:39.520Z,43.08
2018-04-07T07:15:39.495Z,43.08
2018-04-07T07:16:39.483Z,43.08
2018-04-07T07:17:39.463Z,43.18
2018-04-07T07:18:39.447Z,43.01
2018-04-07T07:19:39.431Z,42.63
2018-04-07T07:20:39.412Z,42.84
2018-04-07T07:21:39.409Z,42.27
2018-04-07T07:22:39.380Z,40.76
2018-04-07T07:23:39.374Z,38.76
2018-04-07T07:24:39.350Z,37.73
2018-04-07T07:25:39.330Z,36.88
2018-04-07T07:26:39.316Z,36.71
2018-04-07T07:27:39.301Z,36.14
2018-04-07T07:28:39.290Z,36.06
2018-04-07T07:29:39.325Z,34.93
2018-04-07T07:30:39.254Z,33.49
2018-04-07T07:31:39.240Z,32.54
2018-04-07T07:32:39.227Z,31.96
2018-04-07T07:33:39.214Z,32.26
2018-04-07T07:34:39.206Z,31.21
2018-04-07T07:35:39.188Z,31.30
2018-04-07T07:36:39.179Z,31.02
2018-04-07T07:37:39.172Z,30.64
2018-04-07T07:38:39.151Z,30.26
2018-04-07T07:39:39.147Z,31.40
2018-04-07T07:40:39.127Z,30.94
2018-04-07T07:41:39.121Z,30.46
2018-04-07T07:42:39.105Z,29.12
2018-04-07T07:43:39.092Z,28.83
2018-04-07T07:44:39.083Z,29.12
2018-04-07T07:45:39.074Z,30.46
2018-04-07T07:46:39.142Z,29.13
2018-04-07T07:47:39.056Z,28.00
2018-04-07T07:48:39.048Z,27.25
2018-04-07T07:49:39.043Z,27.05
2018-04-07T07:50:39.034Z,25.53
2018-04-07T07:51:39.024Z,25.34
2018-04-07T07:52:39.019Z,25.24
2018-04-07T07:53:39.016Z,25.16
2018-04-07T07:54:39.002Z,24.77
2018-04-07T07:55:38.995Z,24.13
2018-04-07T07:56:38.989Z,22.78
2018-04-07T07:57:38.985Z,22.59
2018-04-07T07:58:38.977Z,22.69
2018-04-07T07:59:38.973Z,22.03
2018-04-07T08:00:38.968Z,21.06
2018-04-07T08:01:38.969Z,21.83
2018-04-07T08:02:38.958Z,22.91
2018-04-07T08:03:38.954Z,20.90
2018-04-07T08:04:38.951Z,20.21
2018-04-07T08:05:38.951Z,21.09
2018-04-07T08:06:38.944Z,21.00
2018-04-07T08:07:38.941Z,20.12
2018-04-07T08:08:38.941Z,19.53
2018-04-07T08:09:38.941Z,20.60
2018-04-07T08:10:38.936Z,19.92
2018-04-07T08:11:38.930Z,20.01
2018-04-07T08:12:38.928Z,19.43
2018-04-07T08:13:38.926Z,20.20
2018-04-07T08:14:38.937Z,21.17
2018-04-07T08:15:38.923Z,20.70
2018-04-07T08:16:38.921Z,19.54
2018-04-07T08:17:38.924Z,20.31
2018-04-07T08:18:38.916Z,19.65
2018-04-07T08:19:38.915Z,19.55
2018-04-07T08:20:38.957Z,20.51
2018-04-07T08:21:38.912Z,20.31
2018-04-07T08:22:38.911Z,20.30
2018-04-07T08:23:38.909Z,20.28
2018-04-07T08:24:38.909Z,21.44
2018-04-07T08:25:38.907Z,21.15
2018-04-07T08:26:38.907Z,21.66
2018-04-07T08:27:38.906Z,19.65
2018-04-07T08:28:38.906Z,19.65
2018-04-07T08:29:38.909Z,19.47
2018-04-07T08:30:38.903Z,18.32
2018-04-07T08:31:38.906Z,17.55
2018-04-07T08:32:38.901Z,18.41
2018-04-07T08:33:38.899Z,18.32
2018-04-07T08:34:38.898Z,17.35
2018-04-07T08:35:38.898Z,17.83
2018-04-07T08:36:38.897Z,17.82
2018-04-07T08:37:38.896Z,18.59
2018-04-07T08:38:38.898Z,18.57
2018-04-07T08:39:38.900Z,19.24
2018-04-07T08:40:38.896Z,18.95
2018-04-07T08:41:38.897Z,20.78
2018-04-07T08:42:38.897Z,20.88
2018-04-07T08:43:38.905Z,20.88
2018-04-07T08:44:38.902Z,19.92
2018-04-07T08:45:38.897Z,20.78
2018-04-07T08:46:38.897Z,20.89
2018-04-07T08:47:38.902Z,21.58
2018-04-07T08:48:38.899Z,20.42
2018-04-07T08:49:38.898Z,20.04
2018-04-07T08:50:38.900Z,20.53
2018-04-07T08:51:38.911Z,20.32
2018-04-07T08:52:38.900Z,21.96
2018-04-07T08:53:38.900Z,20.98
2018-04-07T08:54:38.900Z,21.27
2018-04-07T08:55:38.900Z,21.18
2018-04-07T08:56:38.901Z,23.57
2018-04-07T08:57:38.900Z,24.15
2018-04-07T08:58:38.901Z,23.28
2018-04-07T08:59:38.901Z,22.32
2018-04-07T09:00:38.910Z,22.62
2018-04-07T09:01:38.899Z,22.13
2018-04-07T09:02:38.897Z,21.75
2018-04-07T09:03:38.900Z,20.68
2018-04-07T09:04:38.896Z,20.50
2018-04-07T09:05:38.895Z,22.03
2018-04-07T09:06:38.894Z,21.92
2018-04-07T09:07:38.896Z,21.17
2018-04-07T09:08:38.890Z,21.17
2018-04-07T09:09:38.888Z,19.62
2018-04-07T09:10:38.886Z,19.42
2018-04-07T09:11:38.889Z,20.28
2018-04-07T09:12:38.893Z,21.05
2018-04-07T09:13:38.881Z,20.67
2018-04-07T09:14:38.882Z,22.11
2018-04-07T09:15:38.876Z,22.79
2018-04-07T09:16:38.876Z,20.97
2018-04-07T09:17:38.870Z,21.06
2018-04-07T09:18:38.867Z,21.15
2018-04-07T09:19:38.865Z,21.25
2018-04-07T09:20:38.861Z,21.84
2018-04-07T09:21:38.862Z,20.59
2018-04-07T09:22:38.854Z,20.50
2018-04-07T09:23:38.855Z,20.79
2018-04-07T09:24:38.851Z,19.73
2018-04-07T09:25:38.843Z,19.83
2018-04-07T09:26:38.841Z,20.21
2018-04-07T09:27:38.837Z,21.19
2018-04-07T09:28:38.836Z,21.28
2018-04-07T09:29:38.829Z,19.36
2018-04-07T09:30:38.832Z,18.78
2018-04-07T09:31:38.823Z,18.59
2018-04-07T09:32:38.820Z,18.87
2018-04-07T09:33:38.822Z,20.98
2018-04-07T09:34:38.812Z,20.70
2018-04-07T09:35:38.807Z,20.21
2018-04-07T09:36:38.813Z,19.35
2018-04-07T09:37:38.809Z,19.73
2018-04-07T09:38:38.797Z,20.02
2018-04-07T09:39:38.793Z,19.45
2018-04-07T09:40:38.794Z,19.07
2018-04-07T09:41:38.782Z,19.26
2018-04-07T09:42:38.781Z,19.64
2018-04-07T09:43:38.775Z,19.72
2018-04-07T09:44:38.772Z,19.73
2018-04-07T09:45:38.770Z,20.02
2018-04-07T09:46:38.762Z,20.02
2018-04-07T09:47:38.760Z,18.59
2018-04-07T09:48:38.760Z,18.13
2018-04-07T09:49:38.756Z,18.05
2018-04-07T09:50:38.753Z,17.10
2018-04-07T09:51:38.752Z,16.61
2018-04-07T09:52:38.745Z,17.27
2018-04-07T09:53:38.740Z,17.07
2018-04-07T09:54:38.739Z,17.15
2018-04-07T09:55:38.740Z,17.82
2018-04-07T09:56:38.733Z,18.48
2018-04-07T09:57:38.728Z,19.43
2018-04-07T09:58:38.726Z,21.26
2018-04-07T09:59:38.726Z,20.30
2018-04-07T10:00:38.725Z,19.34
2018-04-07T10:01:38.717Z,19.33
2018-04-07T10:02:38.714Z,20.29
2018-04-07T10:03:38.712Z,21.06
2018-04-07T10:04:38.713Z,22.02
2018-04-07T10:05:38.704Z,20.67
2018-04-07T10:06:38.700Z,20.86
2018-04-07T10:07:38.697Z,22.88
2018-04-07T10:08:38.694Z,21.67
2018-04-07T10:09:38.697Z,21.11
2018-04-07T10:10:38.683Z,17.76
2018-04-07T10:11:38.678Z,16.03
2018-04-07T10:12:38.677Z,15.75
2018-04-07T10:13:38.695Z,15.67
2018-04-07T10:14:38.677Z,14.12
2018-04-07T10:15:38.669Z,13.06
2018-04-07T10:16:38.665Z,13.15
2018-04-07T10:17:38.665Z,14.03
2018-04-07T10:18:38.662Z,13.54
2018-04-07T10:19:38.662Z,14.61
2018-04-07T10:20:38.662Z,13.54
2018-04-07T10:21:38.665Z,14.61
2018-04-07T10:22:38.663Z,13.75
2018-04-07T10:23:38.660Z,13.16
2018-04-07T10:24:38.659Z,13.73
2018-04-07T10:25:38.658Z,14.12
2018-04-07T10:26:38.660Z,14.99
2018-04-07T10:27:38.665Z,15.19
2018-04-07T10:28:38.661Z,15.38
2018-04-07T10:29:38.660Z,14.51
2018-04-07T10:30:38.666Z,14.41
2018-04-07T10:31:38.665Z,14.60
2018-04-07T10:32:38.668Z,14.98
2018-04-07T10:33:38.669Z,16.24
2018-04-07T10:34:38.669Z,15.45
2018-04-07T10:35:38.675Z,15.55
2018-04-07T10:36:38.678Z,16.69
2018-04-07T10:37:38.680Z,18.42
2018-04-07T10:38:38.684Z,18.32
2018-04-07T10:39:38.684Z,17.84
2018-04-07T10:40:38.686Z,18.42
2018-04-07T10:41:38.686Z,17.36
2018-04-07T10:42:38.690Z,17.83
2018-04-07T10:43:38.693Z,19.28
2018-04-07T10:44:38.706Z,19.67
2018-04-07T10:45:38.700Z,20.73
2018-04-07T10:46:38.705Z,19.47
2018-04-07T10:47:38.704Z,20.05
2018-04-07T10:48:38.707Z,19.08
2018-04-07T10:49:38.714Z,18.88
2018-04-07T10:50:38.712Z,18.50
2018-04-07T10:51:38.719Z,18.01
2018-04-07T10:52:38.735Z,19.07
2018-04-07T10:53:38.718Z,20.03
2018-04-07T10:54:38.724Z,20.13
2018-04-07T10:55:38.728Z,19.75
2018-04-07T10:56:38.728Z,20.32
2018-04-07T10:57:38.727Z,21.19
2018-04-07T10:58:38.729Z,21.00
2018-04-07T10:59:38.731Z,21.28
2018-04-07T11:00:38.732Z,21.28
2018-04-07T11:01:38.734Z,21.10
2018-04-07T11:02:38.736Z,21.01
2018-04-07T11:03:38.739Z,19.26
2018-04-07T11:04:38.735Z,20.23
2018-04-07T11:05:38.733Z,19.65
2018-04-07T11:06:38.734Z,18.98
2018-04-07T11:07:38.742Z,20.33
2018-04-07T11:08:38.734Z,21.10
2018-04-07T11:09:38.732Z,21.97
2018-04-07T11:10:38.740Z,21.48
2018-04-07T11:11:38.730Z,21.30
2018-04-07T11:12:38.729Z,21.10
2018-04-07T11:13:38.728Z,20.51
2018-04-07T11:14:38.725Z,20.13
2018-04-07T11:15:38.727Z,20.61
2018-04-07T11:16:38.723Z,21.28
2018-04-07T11:17:38.723Z,21.67
2018-04-07T11:18:38.725Z,21.86
2018-04-07T11:19:38.715Z,21.08
2018-04-07T11:20:38.713Z,21.66
2018-04-07T11:21:38.709Z,21.75
2018-04-07T11:22:38.752Z,22.24
2018-04-07T11:23:38.704Z,23.30
2018-04-07T11:24:38.699Z,23.39
2018-04-07T11:25:38.693Z,21.85
2018-04-07T11:26:38.689Z,22.05
2018-04-07T11:27:38.691Z,21.08
2018-04-07T11:28:38.682Z,21.75
2018-04-07T11:29:38.675Z,22.52
2018-04-07T11:30:38.671Z,22.33
2018-04-07T11:31:38.668Z,22.72
2018-04-07T11:32:38.664Z,22.91
2018-04-07T11:33:38.660Z,21.66
2018-04-07T11:34:38.651Z,21.85
2018-04-07T11:35:38.648Z,23.00
2018-04-07T11:36:38.639Z,23.20
2018-04-07T11:37:38.633Z,23.00
2018-04-07T11:38:38.628Z,22.33
2018-04-07T11:39:38.622Z,22.52
2018-04-07T11:40:38.615Z,22.91
2018-04-07T11:41:38.613Z,22.33
2018-04-07T11:42:38.604Z,22.24
2018-04-07T11:43:38.598Z,22.14
2018-04-07T11:44:38.591Z,21.67
2018-04-07T11:45:38.584Z,21.86
2018-04-07T11:46:38.580Z,21.38
2018-04-07T11:47:38.572Z,22.91
2018-04-07T11:48:38.570Z,23.21
2018-04-07T11:49:38.558Z,22.92
2018-04-07T11:50:38.554Z,21.77
2018-04-07T11:51:38.546Z,22.36
2018-04-07T11:52:38.543Z,22.64
2018-04-07T11:53:38.533Z,22.06
2018-04-07T11:54:38.525Z,21.30
2018-04-07T11:55:38.515Z,21.30
2018-04-07T11:56:38.510Z,21.30
2018-04-07T11:57:38.502Z,22.26
2018-04-07T11:58:38.501Z,21.79
2018-04-07T11:59:38.489Z,22.46
2018-04-07T12:00:38.482Z,21.88
2018-04-07T12:01:38.481Z,21.61
2018-04-07T12:02:38.476Z,20.93
2018-04-07T12:03:38.461Z,21.89
2018-04-07T12:04:38.453Z,20.74
2018-04-07T12:05:38.445Z,20.83
2018-04-07T12:06:38.441Z,20.74
2018-04-07T12:07:38.432Z,20.26
2018-04-07T12:08:38.425Z,21.04
2018-04-07T12:09:38.432Z,20.07
2018-04-07T12:10:38.416Z,19.30
2018-04-07T12:11:38.417Z,19.59
2018-04-07T12:12:38.399Z,19.40
2018-04-07T12:13:38.390Z,19.98
2018-04-07T12:14:38.387Z,18.54
2018-04-07T12:15:38.377Z,18.84
2018-04-07T12:16:38.368Z,19.42
2018-04-07T12:17:38.360Z,18.84
2018-04-07T12:18:38.355Z,18.84
2018-04-07T12:19:38.349Z,18.26
2018-04-07T12:20:38.341Z,18.17
2018-04-07T12:21:38.337Z,17.78
2018-04-07T12:22:38.335Z,16.82
2018-04-07T12:23:38.320Z,17.69
2018-04-07T12:24:38.314Z,19.63
2018-04-07T12:25:38.307Z,17.51
2018-04-07T12:26:38.302Z,16.83
2018-04-07T12:27:38.298Z,16.16
2018-04-07T12:28:38.287Z,17.32
2018-04-07T12:29:38.279Z,17.22
2018-04-07T12:30:38.274Z,16.94
2018-04-07T12:31:38.267Z,16.07
2018-04-07T12:32:38.262Z,15.59
2018-04-07T12:33:38.255Z,14.92
2018-04-07T12:34:38.246Z,14.63
2018-04-07T12:35:38.249Z,14.34
2018-04-07T12:36:38.239Z,15.02
2018-04-07T12:37:38.228Z,14.16
2018-04-07T12:38:38.219Z,13.87
2018-04-07T12:39:38.215Z,12.91
2018-04-07T12:40:38.209Z,12.14
2018-04-07T12:41:38.201Z,12.82
2018-04-07T12:42:38.196Z,11.76
2018-04-07T12:43:38.189Z,12.35
2018-04-07T12:44:38.187Z,12.84
2018-04-07T12:45:38.180Z,11.77
2018-04-07T12:46:38.177Z,11.49
2018-04-07T12:47:38.173Z,11.58
2018-04-07T12:48:38.166Z,11.10
2018-04-07T12:49:38.161Z,10.71
2018-04-07T12:50:38.158Z,12.08
2018-04-07T12:51:38.154Z,11.40
2018-04-07T12:52:38.159Z,11.59